Time;durP1;ratioP1;P1;durP2;ratioP2;P2;SDS_P1;SDS_P2;PMS_P1;PMS_P2;Temp;Humidity;BMP_temperature;BMP_pressure;BME280_temperature;BME280_humidity;BME280_pressure;Samples;Min_cycle;Max_cycle;Signal;HPM_P1;HPM_P2
2021/11/05 00:02:01;;;;;;;3.38;0.70;;;;;;;-142.75;100.00;77723.97;5037593;28;20083;-71
2021/11/05 00:04:26;;;;;;;6.65;0.93;;;;;;;-142.75;100.00;77743.69;5024439;28;20072;-71
2021/11/05 00:06:51;;;;;;;6.60;0.80;;;;;;;-142.75;100.00;77735.81;5024432;28;20040;-70
2021/11/05 00:09:16;;;;;;;3.53;0.60;;;;;;;-142.75;100.00;77723.97;5021984;28;20268;-70
2021/11/05 00:11:42;;;;;;;4.40;0.57;;;;;;;-142.75;100.00;77720.03;5021665;28;20111;-70
2021/11/05 00:14:07;;;;;;;4.00;0.52;;;;;;;-142.75;100.00;77720.03;5017560;28;20275;-71
2021/11/05 00:16:32;;;;;;;2.40;0.32;;;;;;;-142.75;100.00;77729.88;5041855;28;20021;-70
2021/11/05 00:18:58;;;;;;;4.38;0.77;;;;;;;-142.75;100.00;77735.81;5037474;28;20037;-71
2021/11/05 00:21:23;;;;;;;3.78;0.60;;;;;;;-142.75;100.00;77735.81;5040381;28;20028;-70
2021/11/05 00:23:49;;;;;;;3.28;0.50;;;;;;;-142.75;100.00;77733.84;5038292;28;20029;-72
2021/11/05 00:26:14;;;;;;;2.55;0.55;;;;;;;-142.75;100.00;77735.81;5039443;28;20052;-71
2021/11/05 00:28:40;;;;;;;3.60;0.50;;;;;;;-142.75;100.00;77731.88;5038007;28;20702;-71
2021/11/05 00:31:05;;;;;;;4.75;0.60;;;;;;;-142.75;100.00;77735.81;5031645;28;20135;-70
2021/11/05 00:33:31;;;;;;;3.90;0.57;;;;;;;-142.75;100.00;77741.72;5024510;28;20017;-71
2021/11/05 00:35:56;;;;;;;3.20;0.50;;;;;;;-142.75;100.00;77753.53;5024571;28;20116;-71
2021/11/05 00:38:21;;;;;;;5.00;0.60;;;;;;;-142.75;100.00;77767.31;5039626;28;20052;-71
2021/11/05 00:40:46;;;;;;;2.40;0.53;;;;;;;-142.75;100.00;77771.25;5021470;28;20574;-71
2021/11/05 00:43:12;;;;;;;3.97;0.57;;;;;;;-142.75;100.00;77779.13;5020699;28;20290;-69
2021/11/05 00:45:37;;;;;;;4.07;0.52;;;;;;;-142.75;100.00;77787.00;5039412;28;20109;-69
2021/11/05 00:48:03;;;;;;;1.75;0.55;;;;;;;-142.75;100.00;77790.94;5038848;28;20071;-70
2021/11/05 00:50:28;;;;;;;4.43;0.60;;;;;;;-142.75;100.00;77802.75;5036838;28;20040;-72
2021/11/05 00:52:55;;;;;;;1.88;0.50;;;;;;;-142.75;100.00;77794.88;5015967;28;20106;-70
2021/11/05 00:55:20;;;;;;;2.10;0.57;;;;;;;-142.75;100.00;77796.84;5018306;28;20021;-70
2021/11/05 00:57:45;;;;;;;1.92;0.38;;;;;;;-142.75;100.00;77788.97;5024096;28;20013;-70
2021/11/05 01:00:14;;;;;;;3.28;0.50;;;;;;;-142.75;100.00;77794.88;5041123;28;20024;-70
2021/11/05 01:02:39;;;;;;;2.03;0.60;;;;;;;-142.75;100.00;77806.69;5036309;28;20104;-71
2021/11/05 01:05:05;;;;;;;2.85;0.65;;;;;;;-142.75;100.00;77812.59;5038220;28;20542;-68
2021/11/05 01:07:30;;;;;;;2.35;0.63;;;;;;;-142.75;100.00;77820.47;5041928;28;20039;-71
2021/11/05 01:09:56;;;;;;;7.72;0.40;;;;;;;-142.75;100.00;77814.56;5021766;28;20434;-71
2021/11/05 01:12:21;;;;;;;5.20;0.63;;;;;;;-142.75;100.00;77822.44;5037527;28;20035;-70
2021/11/05 01:14:47;;;;;;;6.68;0.70;;;;;;;-142.75;100.00;77820.47;5042223;28;20267;-70
2021/11/05 01:17:13;;;;;;;3.47;0.60;;;;;;;-142.75;100.00;77826.38;5041389;28;20037;-70
2021/11/05 01:19:38;;;;;;;5.38;0.80;;;;;;;-142.75;100.00;77834.25;5040377;28;20025;-71
2021/11/05 01:22:04;;;;;;;3.88;0.38;;;;;;;-142.75;100.00;77842.13;5021680;28;20108;-68
2021/11/05 01:24:30;;;;;;;2.55;0.30;;;;;;;-142.75;100.00;77853.94;5045945;28;20059;-70
2021/11/05 01:26:55;;;;;;;4.22;0.57;;;;;;;-142.75;100.00;77857.88;5049946;28;20505;-70
2021/11/05 01:29:21;;;;;;;5.28;0.63;;;;;;;-142.75;100.00;77859.84;5042619;28;20075;-69
2021/11/05 01:31:47;;;;;;;4.30;0.65;;;;;;;-142.75;100.00;77859.84;5040281;28;20025;-71
2021/11/05 01:34:12;;;;;;;;;;;;;;;-142.75;100.00;77861.81;5047751;28;20044;-69
2021/11/05 01:36:37;;;;;;;3.73;0.80;;;;;;;-142.75;100.00;77840.16;5041514;28;19913;-70
2021/11/05 01:39:03;;;;;;;7.03;0.90;;;;;;;-142.75;100.00;77865.75;5026446;28;20025;-69
2021/11/05 01:41:29;;;;;;;4.65;0.70;;;;;;;-142.75;100.00;77846.06;5025069;28;20283;-70
2021/11/05 01:43:54;;;;;;;4.35;0.60;;;;;;;-142.75;100.00;77842.13;5028411;28;20378;-70
2021/11/05 01:46:20;;;;;;;4.68;0.60;;;;;;;-142.75;100.00;77846.06;5043018;28;20020;-70
2021/11/05 01:48:45;;;;;;;4.78;0.80;;;;;;;-142.75;100.00;77842.13;5027921;28;20098;-71
2021/11/05 01:51:10;;;;;;;8.30;1.15;;;;;;;-142.75;100.00;77828.34;5045912;28;20506;-71
2021/11/05 01:53:36;;;;;;;6.63;0.95;;;;;;;-142.75;100.00;77830.31;5046529;28;20162;-70
2021/11/05 01:56:01;;;;;;;8.35;0.73;;;;;;;-142.75;100.00;77810.63;5038735;28;20043;-72
2021/11/05 01:58:27;;;;;;;6.22;0.93;;;;;;;-142.75;100.00;77794.88;5044277;28;20032;-70
2021/11/05 02:00:52;;;;;;;8.77;1.25;;;;;;;-142.75;100.00;77790.94;5020761;28;20575;-70
2021/11/05 02:03:18;;;;;;;4.97;0.60;;;;;;;-142.75;100.00;77804.72;5045895;28;20028;-69
2021/11/05 02:05:44;;;;;;;2.17;0.45;;;;;;;-142.75;100.00;77798.81;5048510;28;20379;-70
2021/11/05 02:08:11;;;;;;;;;;;;;;;-142.75;100.00;77794.88;5044521;28;20025;-72
2021/11/05 02:10:37;;;;;;;5.07;0.70;;;;;;;-142.75;100.00;77802.75;5044451;28;19912;-70
2021/11/05 02:13:03;;;;;;;5.23;0.57;;;;;;;-142.75;100.00;77814.56;5050615;28;20029;-71
2021/11/05 02:15:28;;;;;;;3.95;1.02;;;;;;;-142.75;100.00;77820.47;5024185;28;20031;-71
2021/11/05 02:17:54;;;;;;;6.68;0.65;;;;;;;-142.75;100.00;77826.38;5043868;28;20020;-70
2021/11/05 02:20:24;;;;;;;3.83;0.52;;;;;;;-142.75;100.00;77824.41;5032034;28;20150;-71
2021/11/05 02:22:52;;;;;;;5.40;0.63;;;;;;;-142.75;100.00;77830.31;5042269;28;20126;-69
2021/11/05 02:25:18;;;;;;;10.17;0.77;;;;;;;-142.75;100.00;77848.03;5033903;28;20024;-71
2021/11/05 02:27:43;;;;;;;5.20;1.00;;;;;;;-142.75;100.00;77869.69;5047583;28;20482;-71
2021/11/05 02:30:10;;;;;;;4.90;0.73;;;;;;;-142.75;100.00;77873.63;5038296;28;20041;-71
2021/11/05 02:32:36;;;;;;;15.67;1.17;;;;;;;-142.75;100.00;77867.72;5039828;28;20025;-71
2021/11/05 02:35:03;;;;;;;4.15;0.55;;;;;;;-142.75;100.00;77879.53;5045528;28;20557;-71
2021/11/05 02:37:28;;;;;;;4.10;0.63;;;;;;;-142.75;100.00;77885.44;5023418;28;20482;-71
2021/11/05 02:39:54;;;;;;;2.42;0.50;;;;;;;-142.75;100.00;77885.44;5038446;28;20049;-71
2021/11/05 02:42:20;;;;;;;7.63;0.90;;;;;;;-142.75;100.00;77889.38;5023851;28;20045;-70
2021/11/05 02:44:46;;;;;;;4.20;1.17;;;;;;;-142.75;100.00;77893.31;5021554;28;20025;-70
2021/11/05 02:47:26;;;;;;;4.47;0.80;;;;;;;-142.75;100.00;77887.41;5034835;28;20031;-72
2021/11/05 02:49:54;;;;;;;5.13;1.00;;;;;;;-142.75;100.00;77889.38;5024001;28;20052;-70
2021/11/05 02:52:20;;;;;;;4.57;0.93;;;;;;;-142.75;100.00;77889.38;5042342;28;20096;-70
2021/11/05 02:54:46;;;;;;;12.27;1.80;;;;;;;-142.75;100.00;77879.53;5045247;28;20512;-70
2021/11/05 02:57:11;;;;;;;3.60;0.77;;;;;;;-142.75;100.00;77907.09;5041647;28;20043;-71
2021/11/05 02:59:37;;;;;;;3.60;0.70;;;;;;;-142.75;100.00;77920.91;5038673;28;20028;-71
2021/11/05 03:02:03;;;;;;;3.83;0.60;;;;;;;-142.75;100.00;77913.03;5039708;28;20100;-69
2021/11/05 03:04:29;;;;;;;5.03;0.73;;;;;;;-142.75;100.00;77913.03;5056560;22;20116;-67
2021/11/05 03:07:00;;;;;;;4.00;0.70;;;;;;;-142.75;100.00;77909.06;5012949;28;20064;-66
2021/11/05 03:09:31;;;;;;;4.90;0.87;;;;;;;-142.75;100.00;77916.97;5030504;28;20052;-67
2021/11/05 03:11:56;;;;;;;7.97;1.43;;;;;;;-142.75;100.00;77926.81;5012036;28;20025;-67
2021/11/05 03:14:21;;;;;;;3.40;0.60;;;;;;;-142.75;100.00;77924.84;5012798;28;20124;-67
2021/11/05 03:16:46;;;;;;;3.10;0.70;;;;;;;-142.75;100.00;77930.75;5031013;28;20772;-67
2021/11/05 03:19:12;;;;;;;4.63;0.68;;;;;;;-142.75;100.00;77936.66;5030028;28;20288;-66
2021/11/05 03:21:38;;;;;;;4.43;0.60;;;;;;;-142.75;100.00;77944.53;5029857;28;20021;-67
2021/11/05 03:24:04;;;;;;;3.58;0.80;;;;;;;-142.75;100.00;77932.72;5030456;28;20047;-67
2021/11/05 03:26:29;;;;;;;6.35;1.00;;;;;;;-142.75;100.00;77928.78;5029499;28;20079;-67
2021/11/05 03:28:54;;;;;;;9.60;0.70;;;;;;;-142.75;100.00;77940.59;5030304;28;20032;-67
2021/11/05 03:31:19;;;;;;;8.35;0.93;;;;;;;-142.75;100.00;77950.44;5011749;28;20104;-67
2021/11/05 03:33:45;;;;;;;5.03;0.70;;;;;;;-142.75;100.00;77952.41;5030240;28;20561;-67
2021/11/05 03:36:10;;;;;;;3.78;0.77;;;;;;;-142.75;100.00;77956.34;5030146;28;20479;-67
2021/11/05 03:38:36;;;;;;;7.03;0.85;;;;;;;-142.75;100.00;77962.25;5030129;28;20057;-67
2021/11/05 03:41:01;;;;;;;7.63;0.88;;;;;;;-142.75;100.00;77966.19;5029273;28;20029;-67
2021/11/05 03:43:26;;;;;;;8.15;0.77;;;;;;;-142.75;100.00;77974.06;5030092;28;20044;-67
2021/11/05 03:45:52;;;;;;;5.23;1.13;;;;;;;-142.75;100.00;77985.88;5029782;28;20033;-67
2021/11/05 03:48:17;;;;;;;6.65;0.98;;;;;;;-142.75;100.00;77979.97;5030043;28;20268;-67
2021/11/05 03:50:42;;;;;;;4.35;0.80;;;;;;;-142.75;100.00;77987.84;5011764;28;20087;-67
2021/11/05 03:53:08;;;;;;;6.20;0.90;;;;;;;-142.75;100.00;77981.94;5029746;28;20033;-67
2021/11/05 03:55:33;;;;;;;6.63;0.90;;;;;;;-142.75;100.00;77983.91;5030496;28;20484;-67
2021/11/05 03:57:58;;;;;;;6.25;0.90;;;;;;;-142.75;100.00;77976.03;5029797;28;20291;-67
2021/11/05 04:00:24;;;;;;;10.77;1.08;;;;;;;-142.75;100.00;77964.22;5028899;28;20541;-67
2021/11/05 04:02:49;;;;;;;3.95;0.60;;;;;;;-142.75;100.00;77948.47;5029331;28;20467;-66
2021/11/05 04:05:15;;;;;;;4.20;0.90;;;;;;;-142.75;100.00;77952.41;5029726;28;20036;-66
2021/11/05 04:07:40;;;;;;;9.60;0.98;;;;;;;-142.75;100.00;77954.38;5011837;28;20478;-67
2021/11/05 04:10:06;;;;;;;4.63;0.70;;;;;;;-142.75;100.00;77956.34;5028988;28;20052;-67
2021/11/05 04:12:32;;;;;;;5.65;1.33;;;;;;;-142.75;100.00;77962.25;5029641;28;20037;-67
2021/11/05 04:14:57;;;;;;;6.72;1.05;;;;;;;-142.75;100.00;77962.25;5029480;28;20025;-67
2021/11/05 04:17:23;;;;;;;4.22;1.00;;;;;;;-142.75;100.00;77960.28;5029408;28;20033;-67
2021/11/05 04:19:48;;;;;;;6.82;0.75;;;;;;;-142.75;100.00;77981.94;5028668;28;20104;-68
2021/11/05 04:22:14;;;;;;;5.63;1.05;;;;;;;-142.75;100.00;77978.00;5029165;28;20475;-67
2021/11/05 04:24:39;;;;;;;2.92;0.73;;;;;;;-142.75;100.00;77999.66;5029757;28;20022;-67
2021/11/05 04:27:04;;;;;;;9.27;0.95;;;;;;;-142.75;100.00;77981.94;5029763;28;20493;-67
2021/11/05 04:29:31;;;;;;;4.40;0.77;;;;;;;-142.75;100.00;77987.84;5029162;28;20124;-67
2021/11/05 04:31:56;;;;;;;;;;;;;;;-142.75;100.00;77995.72;5028998;28;20025;-67
2021/11/05 04:34:22;;;;;;;2.93;0.50;;;;;;;-142.75;100.00;77991.78;5011104;28;20428;-67
2021/11/05 04:36:47;;;;;;;3.80;0.80;;;;;;;-142.75;100.00;77991.78;5011612;28;20021;-67
2021/11/05 04:39:17;;;;;;;3.95;0.82;;;;;;;-142.75;100.00;77972.09;5028694;28;20025;-67
2021/11/05 04:41:45;;;;;;;8.90;2.07;;;;;;;-142.75;100.00;77968.16;5028412;28;20026;-66
2021/11/05 04:44:11;;;;;;;5.10;1.27;;;;;;;-142.75;100.00;77968.16;5028671;28;20116;-67
2021/11/05 04:46:36;;;;;;;5.32;0.68;;;;;;;-142.75;100.00;77948.47;5029052;28;20133;-67
2021/11/05 04:49:02;;;;;;;8.52;0.90;;;;;;;-142.75;100.00;77964.22;5028735;28;20021;-67
2021/11/05 04:51:27;;;;;;;6.88;0.63;;;;;;;-142.75;100.00;77964.22;5027895;28;20435;-67
2021/11/05 04:53:53;;;;;;;6.28;0.80;;;;;;;-142.75;100.00;77968.16;5028485;28;20029;-66
2021/11/05 04:56:18;;;;;;;5.15;1.00;;;;;;;-142.75;100.00;77964.22;5011043;28;20056;-67
2021/11/05 04:58:44;;;;;;;4.65;0.90;;;;;;;-142.75;100.00;77985.88;5028415;28;20467;-66
2021/11/05 05:01:09;;;;;;;4.57;0.73;;;;;;;-142.75;100.00;77987.84;5027842;28;20029;-66
2021/11/05 05:03:35;;;;;;;9.38;1.63;;;;;;;-142.75;100.00;77987.84;5028334;28;20029;-66
2021/11/05 05:06:00;;;;;;;3.53;0.57;;;;;;;-142.75;100.00;77995.72;5027340;28;20029;-67
2021/11/05 05:08:26;;;;;;;4.38;0.65;;;;;;;-142.75;100.00;78005.56;5028584;28;20022;-67
2021/11/05 05:10:51;;;;;;;4.82;1.02;;;;;;;-142.75;100.00;77991.78;5027901;28;20082;-68
2021/11/05 05:13:17;;;;;;;5.13;0.80;;;;;;;-142.75;100.00;77987.84;5028462;28;20025;-67
2021/11/05 05:15:42;;;;;;;6.50;0.93;;;;;;;-142.75;100.00;77995.72;5028936;28;20030;-67
2021/11/05 05:18:07;;;;;;;4.95;0.70;;;;;;;-142.75;100.00;78011.47;5028216;28;20128;-67
2021/11/05 05:20:33;;;;;;;2.15;0.98;;;;;;;-142.75;100.00;78007.53;5027803;28;20537;-67
2021/11/05 05:22:58;;;;;;;5.47;0.77;;;;;;;-142.75;100.00;78001.63;5010600;28;20025;-68
2021/11/05 05:25:24;;;;;;;8.85;1.33;;;;;;;-142.75;100.00;78001.63;5011270;28;20029;-67
2021/11/05 05:27:49;;;;;;;5.07;0.90;;;;;;;-142.75;100.00;78003.59;5028513;28;20403;-67
2021/11/05 05:30:16;;;;;;;5.00;0.90;;;;;;;-142.75;100.00;78007.53;5010000;28;20071;-67
2021/11/05 05:32:43;;;;;;;7.47;0.90;;;;;;;-142.75;100.00;78023.28;5028543;28;20036;-68
2021/11/05 05:35:10;;;;;;;5.17;0.93;;;;;;;-142.75;100.00;78048.88;5028420;28;20110;-67
2021/11/05 05:37:35;;;;;;;1.77;0.50;;;;;;;-142.75;100.00;78054.81;5028426;28;20092;-67
2021/11/05 05:40:02;;;;;;;6.93;0.93;;;;;;;-142.75;100.00;78060.72;5009950;28;20029;-67
2021/11/05 05:42:27;;;;;;;;;;;;;;;-142.75;100.00;78070.56;5028606;28;20044;-67
2021/11/05 05:44:52;;;;;;;4.97;1.10;;;;;;;-142.75;100.00;78078.44;5028179;28;20379;-67
2021/11/05 05:47:17;;;;;;;4.63;1.20;;;;;;;-142.75;100.00;78074.50;5010517;28;20026;-67
2021/11/05 05:49:44;;;;;;;4.53;0.90;;;;;;;-142.75;100.00;78066.63;5027866;28;20665;-67
2021/11/05 05:52:09;;;;;;;9.32;0.90;;;;;;;-142.75;100.00;78066.63;5028259;28;20104;-66
2021/11/05 05:54:35;;;;;;;4.38;0.85;;;;;;;-142.75;100.00;78052.81;5028025;28;20025;-67
2021/11/05 05:57:00;;;;;;;6.32;0.80;;;;;;;-142.75;100.00;78046.91;5028645;28;20026;-67
2021/11/05 05:59:26;;;;;;;5.53;1.13;;;;;;;-142.75;100.00;78066.63;5028174;28;20025;-67
2021/11/05 06:01:52;;;;;;;2.80;0.80;;;;;;;-142.75;100.00;78062.69;5027420;28;20021;-67
2021/11/05 06:04:19;;;;;;;5.72;1.00;;;;;;;-142.75;100.00;78072.53;5027906;28;20025;-67
2021/11/05 06:06:44;;;;;;;5.83;1.00;;;;;;;-142.75;100.00;78076.47;5028401;28;20493;-67
2021/11/05 06:09:10;;;;;;;6.57;0.83;;;;;;;-142.75;100.00;78058.72;5029833;28;20029;-67
2021/11/05 06:11:35;;;;;;;7.05;0.93;;;;;;;-142.75;100.00;78056.78;5013150;28;20280;-66
2021/11/05 06:14:00;;;;;;;7.38;1.05;;;;;;;-142.75;100.00;78050.84;5031788;28;20033;-67
2021/11/05 06:16:26;;;;;;;5.90;1.10;;;;;;;-142.75;100.00;78050.84;5031459;28;20144;-67
2021/11/05 06:18:51;;;;;;;6.07;0.80;;;;;;;-142.75;100.00;78044.94;5031757;28;20095;-66
2021/11/05 06:21:17;;;;;;;3.22;0.88;;;;;;;-142.75;100.00;78058.72;5030811;28;20509;-67
2021/11/05 06:23:42;;;;;;;3.20;0.70;;;;;;;-142.75;100.00;78060.72;5031790;28;20067;-67
2021/11/05 06:26:08;;;;;;;6.45;0.90;;;;;;;-142.75;100.00;78062.69;5032187;28;20108;-67
2021/11/05 06:28:33;;;;;;;4.18;0.88;;;;;;;-142.75;100.00;78062.69;5031346;28;20029;-67
2021/11/05 06:30:58;;;;;;;6.10;0.80;;;;;;;-142.75;100.00;78066.63;5030579;28;20023;-67
2021/11/05 06:33:24;;;;;;;3.67;0.82;;;;;;;-142.75;100.00;78068.59;5013818;28;20292;-67
2021/11/05 06:35:49;;;;;;;6.43;1.07;;;;;;;-142.75;100.00;78058.72;5031414;28;20025;-66
2021/11/05 06:38:15;;;;;;;6.95;0.70;;;;;;;-142.75;100.00;78070.56;5030985;28;20288;-67
2021/11/05 06:40:41;;;;;;;7.63;1.02;;;;;;;-142.75;100.00;78066.63;5030798;28;20076;-66
2021/11/05 06:43:06;;;;;;;;;;;;;;;-142.75;100.00;78070.56;5031628;28;20061;-66
2021/11/05 06:45:32;;;;;;;3.80;1.00;;;;;;;-142.75;100.00;78058.72;5029789;28;20392;-67
2021/11/05 06:47:57;;;;;;;5.63;1.15;;;;;;;-142.75;100.00;78046.91;5031041;28;20021;-66
2021/11/05 06:50:22;;;;;;;4.40;0.98;;;;;;;-142.75;100.00;78084.34;5030266;28;20032;-67
2021/11/05 06:52:48;;;;;;;3.50;1.10;;;;;;;-142.75;100.00;78098.13;5030923;28;20056;-66
2021/11/05 06:55:14;;;;;;;8.15;1.25;;;;;;;-142.75;100.00;78113.88;5031331;28;20268;-67
2021/11/05 06:57:40;;;;;;;3.97;0.90;;;;;;;-142.75;100.00;78125.69;5031519;28;20025;-67
2021/11/05 07:00:07;;;;;;;7.90;1.17;;;;;;;-142.75;100.00;78129.63;5012114;28;20438;-67
2021/11/05 07:02:33;;;;;;;4.10;1.00;;;;;;;-142.75;100.00;78119.78;5030523;28;20031;-66
2021/11/05 07:04:58;;;;;;;4.10;0.82;;;;;;;-142.75;100.00;78107.97;5029652;28;20059;-67
2021/11/05 07:07:24;;;;;;;4.90;1.00;;;;;;;-142.75;100.00;78096.16;5033641;28;20032;-67
2021/11/05 07:09:49;;;;;;;6.07;1.60;;;;;;;-142.75;100.00;78078.44;5049091;28;20341;-67
2021/11/05 07:12:15;;;;;;;5.18;1.13;;;;;;;-142.75;100.00;78070.56;5031752;28;20289;-67
2021/11/05 07:14:40;;;;;;;6.20;1.05;;;;;;;-142.75;100.00;78054.81;5049896;28;20478;-67
2021/11/05 07:17:06;;;;;;;3.30;1.10;;;;;;;-142.75;100.00;78039.03;5031750;28;20482;-67
2021/11/05 07:19:31;;;;;;;3.65;1.25;;;;;;;-142.75;100.00;78039.03;5048694;28;20091;-67
2021/11/05 07:22:02;;;;;;;5.50;1.40;;;;;;;-142.75;100.00;78068.59;5048411;28;20021;-67
2021/11/05 07:24:29;;;;;;;5.80;1.53;;;;;;;-142.75;100.00;78066.63;5034963;28;20279;-67
2021/11/05 07:26:56;;;;;;;7.77;1.63;;;;;;;-142.75;100.00;78060.72;5030034;28;20108;-67
2021/11/05 07:29:28;;;;;;;8.48;1.45;;;;;;;-142.75;100.00;78062.69;5029621;28;20109;-67
2021/11/05 07:31:58;;;;;;;3.88;1.23;;;;;;;-142.75;100.00;78080.41;5028692;28;20029;-67
2021/11/05 07:34:25;;;;;;;7.45;1.73;;;;;;;-142.75;100.00;78082.38;5029140;28;20060;-67
2021/11/05 07:36:50;;;;;;;8.82;1.58;;;;;;;-142.75;100.00;78056.78;5029175;28;20029;-66
2021/11/05 07:39:15;;;;;;;11.82;1.85;;;;;;;-142.75;100.00;78035.09;5029328;28;20372;-66
2021/11/05 07:41:41;;;;;;;6.15;1.95;;;;;;;-142.75;100.00;78015.41;5029033;28;20482;-66
2021/11/05 07:44:06;;;;;;;6.13;1.55;;;;;;;-142.75;100.00;78007.53;5011291;28;20431;-67
2021/11/05 07:46:32;;;;;;;5.15;1.10;;;;;;;-142.75;100.00;77987.84;5027824;28;20108;-67
2021/11/05 07:48:57;;;;;;;;;;;;;;;-142.75;100.00;77989.81;5011802;28;20017;-65
2021/11/05 07:51:23;;;;;;;7.30;1.63;;;;;;;-142.75;100.00;77991.78;5028022;28;20062;-65
2021/11/05 07:53:48;;;;;;;10.70;2.15;;;;;;;-142.75;100.00;77985.88;5028866;28;20025;-65
2021/11/05 07:56:14;;;;;;;8.25;1.60;;;;;;;-142.75;100.00;77999.66;5029248;28;20126;-65
2021/11/05 07:58:39;;;;;;;5.10;1.88;;;;;;;-142.75;100.00;78015.41;5010609;28;20022;-65
2021/11/05 08:01:05;;;;;;;9.77;2.33;;;;;;;-142.75;100.00;78050.84;5027881;28;20379;-65
2021/11/05 08:03:30;;;;;;;7.57;1.83;;;;;;;-142.75;100.00;78044.94;5028446;28;20276;-65
2021/11/05 08:05:55;;;;;;;5.43;1.63;;;;;;;-142.75;100.00;78044.94;5028667;28;20040;-65
2021/11/05 08:08:21;;;;;;;9.27;1.55;;;;;;;-142.75;100.00;78035.09;5011102;28;20071;-66
2021/11/05 08:10:46;;;;;;;8.00;1.90;;;;;;;-142.75;100.00;78007.53;5009128;28;20072;-65
2021/11/05 08:13:13;;;;;;;4.38;1.40;;;;;;;-142.75;100.00;77991.78;5028109;28;20025;-65
2021/11/05 08:15:39;;;;;;;8.02;1.73;;;;;;;-142.75;100.00;77956.34;5029249;28;20037;-73
2021/11/05 08:18:04;;;;;;;9.95;1.67;;;;;;;-142.75;100.00;77960.28;5030013;28;20452;-67
2021/11/05 08:20:29;;;;;;;10.52;1.75;;;;;;;-142.75;100.00;77976.03;5047234;28;20099;-67
2021/11/05 08:22:55;;;;;;;6.70;1.73;;;;;;;-142.75;100.00;77979.97;5048430;28;20032;-67
2021/11/05 08:25:20;;;;;;;9.77;1.67;;;;;;;-142.75;100.00;77989.81;5048365;28;20029;-69
2021/11/05 08:27:47;;;;;;;5.68;1.58;;;;;;;-142.75;100.00;78011.47;5049060;28;20140;-66
2021/11/05 08:30:17;;;;;;;9.75;2.15;;;;;;;-142.75;100.00;78011.47;5047074;28;20481;-67
2021/11/05 08:32:43;;;;;;;5.28;1.58;;;;;;;-142.75;100.00;78019.34;5047274;28;20021;-69
2021/11/05 08:35:08;;;;;;;9.55;1.88;;;;;;;-142.75;100.00;77964.22;5047929;28;20584;-67
2021/11/05 08:37:34;;;;;;;10.48;2.25;;;;;;;-142.75;100.00;77909.06;5047787;28;20028;-67
2021/11/05 08:40:00;;;;;;;5.20;1.65;;;;;;;-142.75;100.00;77842.13;5046381;28;20094;-67
2021/11/05 08:42:25;;;;;;;;;;;;;;;-142.75;100.00;77761.41;5048550;28;20762;-67
2021/11/05 08:44:51;;;;;;;6.93;1.63;;;;;;;-142.75;100.00;77696.41;5047941;28;19960;-67
2021/11/05 08:47:17;;;;;;;7.00;1.42;;;;;;;-142.75;100.00;77645.22;5047787;28;20021;-66
2021/11/05 08:49:42;;;;;;;;;;;;;;;-142.75;100.00;77584.19;5033492;28;20487;-67
2021/11/05 08:52:09;;;;;;;5.05;1.10;;;;;;;-142.75;100.00;77542.84;5027764;28;19924;-67
2021/11/05 08:54:35;;;;;;;7.68;1.48;;;;;;;-142.75;100.00;77550.72;5027626;28;20484;-67
2021/11/05 08:57:00;;;;;;;7.32;1.38;;;;;;;-142.75;100.00;77554.66;5028644;28;20117;-67
2021/11/05 08:59:26;;;;;;;4.18;1.02;;;;;;;-142.75;100.00;77491.66;5027893;28;20037;-67
2021/11/05 09:01:52;;;;;;;;;;;;;;;-142.75;100.00;77519.22;5027307;28;20052;-68
2021/11/05 09:04:17;;;;;;;8.32;1.52;;;;;;;-142.75;100.00;77527.09;5027675;28;19919;-67
2021/11/05 09:06:44;;;;;;;6.90;1.10;;;;;;;-142.75;100.00;77550.72;5047400;28;20028;-67
2021/11/05 09:09:10;;;;;;;13.70;1.77;;;;;;;-142.75;100.00;77580.25;5047630;28;20021;-67
2021/11/05 09:11:35;;;;;;;5.60;1.50;;;;;;;-142.75;100.00;77542.84;5046747;28;20036;-67
2021/11/05 09:14:00;;;;;;;;;;;;;;;-142.75;100.00;77493.63;5047962;28;20501;-67
2021/11/05 09:16:28;;;;;;;8.75;1.25;;;;;;;-142.75;100.00;77497.56;5029972;28;19956;-67
2021/11/05 09:18:55;;;;;;;6.90;1.20;;;;;;;-142.75;98.58;77436.50;5029692;28;20442;-67
2021/11/05 09:21:20;;;;;;;7.53;2.00;;;;;;;-142.75;95.49;77385.31;5044422;28;20494;-66
2021/11/05 09:23:46;;;;;;;7.30;1.10;;;;;;;-142.75;92.53;77357.75;5027868;28;20028;-67
2021/11/05 09:26:11;;;;;;;6.63;1.55;;;;;;;-142.75;91.51;77334.13;5026889;28;20034;-67
2021/11/05 09:28:37;;;;;;;11.90;1.33;;;;;;;-142.75;89.43;77300.66;5009370;28;20022;-66
2021/11/05 09:31:03;;;;;;;7.10;1.20;;;;;;;-142.75;88.30;77292.78;5026963;28;20533;-66
2021/11/05 09:33:29;;;;;;;6.22;1.52;;;;;;;-142.75;87.34;77275.06;5027174;28;20022;-66
2021/11/05 09:35:54;;;;;;;6.68;1.40;;;;;;;-142.75;86.85;77269.16;5009859;28;20036;-67
2021/11/05 09:38:19;;;;;;;;;;;;;;;-142.75;85.66;77227.81;5027979;28;20103;-67
2021/11/05 09:40:45;;;;;;;7.00;1.20;;;;;;;-142.75;85.01;77200.25;5027022;28;19975;-66
2021/11/05 09:43:11;;;;;;;10.23;1.38;;;;;;;-142.75;82.29;77188.44;5029472;28;20053;-68
2021/11/05 09:45:37;;;;;;;8.23;1.15;;;;;;;-142.75;82.36;77221.91;5031693;28;20556;-68
2021/11/05 09:48:03;;;;;;;;;;;;;;;-142.75;84.49;77247.50;5029788;28;20533;-67
2021/11/05 09:50:29;;;;;;;5.30;0.80;;;;;;;-142.75;84.64;77290.81;5030760;28;19963;-67
2021/11/05 09:52:55;;;;;;;4.85;1.15;;;;;;;-142.75;87.43;77328.22;5031886;28;20021;-67
2021/11/05 09:55:21;;;;;;;3.22;0.65;;;;;;;-142.75;89.34;77410.91;5031551;28;20044;-67
2021/11/05 09:57:46;;;;;;;;;;;;;;;-142.75;91.64;77444.38;5032613;28;20670;-67
2021/11/05 10:00:15;;;;;;;4.15;0.65;;;;;;;-142.75;91.21;77487.72;5030779;28;19913;-67
2021/11/05 10:02:43;;;;;;;2.15;0.43;;;;;;;-142.75;91.33;77556.63;5031827;28;20021;-67
2021/11/05 10:05:10;;;;;;;3.53;0.60;;;;;;;-142.75;93.07;77617.66;5031467;28;20428;-67
2021/11/05 10:07:51;;;;;;;3.40;0.70;;;;;;;-142.75;94.63;77560.56;5013106;28;20498;-67
2021/11/05 10:10:23;;;;;;;6.68;0.45;;;;;;;-142.75;93.40;77503.47;5031081;28;20049;-67
2021/11/05 10:12:55;;;;;;;4.85;0.50;;;;;;;-142.75;90.46;77460.13;5031583;28;20430;-66
2021/11/05 10:15:27;;;;;;;4.30;0.40;;;;;;;-142.75;89.83;77408.94;5031554;28;20059;-68
2021/11/05 10:18:06;;;;;;;3.42;0.43;;;;;;;-142.75;87.32;77393.19;5031095;28;20032;-70
2021/11/05 10:20:32;;;;;;;3.05;0.50;;;;;;;-142.75;87.61;77471.97;5030668;28;20402;-67
2021/11/05 10:23:02;;;;;;;2.47;0.50;;;;;;;-142.75;88.83;77477.88;5031440;28;20029;-68
2021/11/05 10:25:36;;;;;;;2.30;0.32;;;;;;;-142.75;88.00;77456.22;5031379;28;20029;-67
2021/11/05 10:28:07;;;;;;;2.47;0.40;;;;;;;-142.75;87.25;77428.63;5051360;28;20037;-67
2021/11/05 10:31:00;;;;;;;4.78;0.50;;;;;;;-142.75;84.97;77391.22;5050373;28;20025;-67
2021/11/05 10:33:32;;;;;;;6.57;0.73;;;;;;;-142.75;83.53;77347.91;5050931;28;20486;-67
2021/11/05 10:36:03;;;;;;;3.05;0.50;;;;;;;-142.75;81.99;77290.81;5051032;28;20036;-67
2021/11/05 10:38:33;;;;;;;4.75;0.65;;;;;;;-142.75;79.05;77255.38;5051055;28;20036;-67
2021/11/05 10:41:01;;;;;;;2.22;0.50;;;;;;;-142.75;77.28;77194.34;5032422;28;20496;-67
2021/11/05 10:43:49;;;;;;;4.80;0.50;;;;;;;-142.75;74.98;77192.38;5050688;28;20029;-67
2021/11/05 10:46:34;;;;;;;2.20;0.50;;;;;;;-142.75;75.43;77156.94;5050953;28;20033;-68
2021/11/05 10:49:06;;;;;;;3.70;0.32;;;;;;;-142.75;72.59;77125.44;5050723;28;20025;-68
2021/11/05 10:51:33;;;;;;;6.72;0.52;;;;;;;-142.75;73.34;77088.03;5032135;28;20037;-69
2021/11/05 10:53:59;;;;;;;3.33;0.65;;;;;;;-142.75;72.90;77168.75;5049840;28;20040;-68
2021/11/05 10:56:29;;;;;;;4.93;0.93;;;;;;;-142.75;72.15;77105.75;5050721;28;20035;-68
2021/11/05 10:59:06;;;;;;;6.53;0.70;;;;;;;-142.75;73.81;77117.56;5050391;28;20033;-69
2021/11/05 11:01:35;;;;;;;5.78;0.88;;;;;;;-142.75;73.48;77208.13;5049637;28;20045;-69
2021/11/05 11:04:12;;;;;;;2.65;0.52;;;;;;;-142.75;75.22;77322.31;5050270;28;20033;-67
2021/11/05 11:06:41;;;;;;;5.88;0.60;;;;;;;-142.75;77.94;77403.03;5031191;28;20098;-67
2021/11/05 11:09:16;;;;;;;7.78;1.10;;;;;;;-142.75;79.52;77483.78;5050977;28;20021;-68
2021/11/05 11:11:44;;;;;;;4.07;0.60;;;;;;;-142.75;80.09;77470.00;5050069;28;20025;-67